Pittsville, Wisconsin
Current Conditions -  °F | °C
As of 12:41 PM on Thursday 23 Oct 2014 (Local Time) from KMFI Reporting Station
Light Rain Light Rain  
Wind Chill: 41°   Ceiling: 400
Heat Index: 46°   Visibility: 4mi
Dew Point: 44°   Wind: 9mph
Humidity: 93%   Direction: 180°S
Pressure: 30.04"   Gusts: NA
Location:  44.44°N, 90.12°W
Report Text: KMFI 231741Z AUTO 18008KT 4SM -RA BR OVC004 08/07 A3004 RMK AO2 P0001 T00780067
Loading
Personal Weather Stations






























Interactive Weather Map
Tropical Storm Tracking
New forecast layout! Learn more

10-Day Weather Forecast

Advertisements
Track Severe Weather on mobile